This is the latest recevied weather packets stored in our database for station/object KD4KKF. If no packets are shown the sender has not sent any weather packets the latest 10 day(s).
| Time | Temp. | Humidity | Pressure | Rain* | Wind** | Luminosity | Snow |
|---|---|---|---|---|---|---|---|
| 1778007745 | 24.44° C | 62% | 1011.4 hPa | 0 mm | - | 375 W/m² | - |
| 1778007442 | 24.44° C | 63% | 1011.7 hPa | 0 mm | - | 247 W/m² | - |
| 1778007139 | 24.44° C | 62% | 1011.4 hPa | 0 mm | - | 672 W/m² | - |
| 1778006835 | 25° C | 62% | 1011.7 hPa | 0 mm | - | 961 W/m² | - |
| 1778006533 | 25° C | 61% | 1011.8 hPa | 0 mm | - | 809 W/m² | - |
| 1778006229 | 24.44° C | 61% | 1011.9 hPa | 0 mm | - | 664 W/m² | - |
| 1778005927 | 25° C | 60% | 1011.9 hPa | 0 mm | - | 503 W/m² | - |
| 1778005622 | 25° C | 61% | 1012.1 hPa | 0 mm | - | 878 W/m² | - |
| 1778005320 | 24.44° C | 63% | 1012 hPa | 0 mm | - | 854 W/m² | - |
| 1778005016 | 23.89° C | 63% | 1012.1 hPa | 0 mm | - | 832 W/m² | - |
| 1778004714 | 24.44° C | 62% | 1012.2 hPa | 0 mm | - | 807 W/m² | - |
| 1778004410 | 23.89° C | 64% | 1012.2 hPa | 0 mm | - | 792 W/m² | - |
| 1778004107 | 23.33° C | 66% | 1012.3 hPa | 0 mm | - | 407 W/m² | - |
| 1778003803 | 23.33° C | 63% | 1012.5 hPa | 0 mm | - | 386 W/m² | - |
| 1778003499 | 23.89° C | 64% | 1012.6 hPa | 0 mm | - | 444 W/m² | - |
| 1778003196 | 23.89° C | 64% | 1012.9 hPa | 0 mm | - | 428 W/m² | - |
| 1778002892 | 23.33° C | 65% | 1012.7 hPa | 0 mm | - | 531 W/m² | - |
| 1778002589 | 23.89° C | 65% | 1012.7 hPa | 0 mm | - | 385 W/m² | - |
| 1778002286 | 23.89° C | 63% | 1012.7 hPa | 0 mm | - | 803 W/m² | - |
| 1778001983 | 23.33° C | 63% | 1012.7 hPa | 0 mm | - | 688 W/m² | - |
| 1778001681 | 22.78° C | 66% | 1013 hPa | 0 mm | - | 875 W/m² | - |
| 1778001375 | 23.89° C | 63% | 1012.9 hPa | 0 mm | - | 531 W/m² | - |
| 1778001072 | 23.33° C | 64% | 1013.1 hPa | 0 mm | - | 576 W/m² | - |
| 1778000769 | 23.89° C | 64% | 1012.8 hPa | 0 mm | - | 717 W/m² | - |
| 1778000465 | 23.33° C | 63% | 1013 hPa | 0 mm | - | 711 W/m² | - |
* Rain latest hour (hover to see other rain measurements)
** Current wind speed in m/s (hover to see current wind gust speed)